createdAt,value
2022-08-24T00:01:50.032Z,95879.75
2022-08-24T00:04:38.624Z,95874.17
2022-08-24T00:10:40.217Z,95877.84
2022-08-24T00:16:18.735Z,95873.33
2022-08-24T00:21:55.431Z,95880.48
2022-08-24T00:33:20.379Z,95877.56
2022-08-24T00:36:10.600Z,95877.61
2022-08-24T00:41:48.394Z,95872.82
2022-08-24T00:47:26.118Z,95876.52
2022-08-24T00:53:05.099Z,95870.78
2022-08-24T00:55:56.104Z,95879.14
2022-08-24T01:01:30.040Z,95876.69
2022-08-24T01:07:07.342Z,95869.32
2022-08-24T01:12:42.263Z,95867.20
2022-08-24T01:18:35.250Z,95860.34
2022-08-24T01:24:16.136Z,95861.48
2022-08-24T01:27:05.298Z,95859.51
2022-08-24T01:29:56.039Z,95849.02
2022-08-24T01:35:41.341Z,95853.67
2022-08-24T01:41:31.305Z,95850.30
2022-08-24T01:44:21.121Z,95858.83
2022-08-24T01:47:11.086Z,95855.45
2022-08-24T01:53:06.322Z,95863.20
2022-08-24T01:58:34.952Z,95851.27
2022-08-24T02:04:10.054Z,95856.68
2022-08-24T02:09:44.272Z,95853.22
2022-08-24T02:15:20.286Z,95853.76
2022-08-24T02:20:58.184Z,95856.85
2022-08-24T02:23:46.649Z,95857.55
2022-08-24T02:29:19.620Z,95862.34
2022-08-24T02:32:08.357Z,95867.15
2022-08-24T02:37:36.406Z,95859.30
2022-08-24T02:43:25.656Z,95863.98
2022-08-24T02:49:11.648Z,95857.33
2022-08-24T02:54:37.137Z,95865.39
2022-08-24T02:57:25.597Z,95864.97
2022-08-24T03:02:56.417Z,95861.28
2022-08-24T03:05:44.706Z,95866.43
2022-08-24T03:11:38.199Z,95861.34
2022-08-24T03:17:06.956Z,95853.80
2022-08-24T03:22:43.542Z,95854.23
2022-08-24T03:25:33.655Z,95858.73
2022-08-24T03:28:23.525Z,95856.00
2022-08-24T03:34:04.676Z,95858.86
2022-08-24T03:39:40.703Z,95857.58
2022-08-24T03:42:29.254Z,95858.43
2022-08-24T03:45:18.639Z,95856.64
2022-08-24T03:48:08.137Z,95850.35
2022-08-24T03:53:43.789Z,95855.36
2022-08-24T03:56:32.255Z,95861.22
2022-08-24T04:02:05.930Z,95856.77
2022-08-24T04:07:40.564Z,95857.67
2022-08-24T04:13:13.278Z,95862.94
2022-08-24T04:18:54.164Z,95853.56
2022-08-24T04:21:44.215Z,95862.75
2022-08-24T04:24:36.015Z,95857.27
2022-08-24T04:30:06.065Z,95854.37
2022-08-24T04:35:45.435Z,95860.44
2022-08-24T04:41:16.322Z,95858.52
2022-08-24T04:46:58.289Z,95867.20
2022-08-24T04:52:27.605Z,95866.52
2022-08-24T04:58:04.466Z,95881.86
2022-08-24T05:03:34.455Z,95880.08
2022-08-24T05:09:12.880Z,95879.48
2022-08-24T05:17:32.874Z,95885.91
2022-08-24T05:20:21.581Z,95885.80
2022-08-24T05:23:10.541Z,95892.63
2022-08-24T05:28:55.411Z,95892.77
2022-08-24T05:31:46.573Z,95891.00
2022-08-24T05:37:44.046Z,95884.59
2022-08-24T05:43:24.839Z,95881.67
2022-08-24T05:46:13.711Z,95888.25
2022-08-24T05:49:02.704Z,95895.31
2022-08-24T05:54:40.900Z,95889.63
2022-08-24T06:00:20.645Z,95902.64
2022-08-24T06:03:14.591Z,95901.64
2022-08-24T06:08:50.161Z,95895.63
2022-08-24T06:11:40.455Z,95897.19
2022-08-24T06:14:28.863Z,95901.05
2022-08-24T06:20:03.965Z,95904.06
2022-08-24T06:22:52.247Z,95904.41
2022-08-24T06:31:17.791Z,95907.17
2022-08-24T06:34:06.105Z,95907.11
2022-08-24T06:36:54.190Z,95911.88
2022-08-24T06:42:30.287Z,95922.28
2022-08-24T06:45:18.805Z,95921.52
2022-08-24T06:48:07.745Z,95914.84
2022-08-24T06:53:45.352Z,95912.64
2022-08-24T06:59:22.577Z,95908.14
2022-08-24T07:04:58.511Z,95902.09
2022-08-24T07:10:30.320Z,95907.61
2022-08-24T07:16:05.546Z,95912.99
2022-08-24T07:18:54.987Z,95912.02
2022-08-24T07:24:29.965Z,95910.52
2022-08-24T07:30:26.478Z,95917.95
2022-08-24T07:33:01.255Z,95917.27
2022-08-24T07:35:55.142Z,95912.45
2022-08-24T07:38:44.403Z,95915.91
2022-08-24T07:44:24.483Z,95914.03
2022-08-24T07:47:36.958Z,95925.67
2022-08-24T07:52:45.689Z,95933.27
2022-08-24T07:55:34.915Z,95922.55
2022-08-24T08:01:11.752Z,95920.89
2022-08-24T08:04:00.199Z,95927.52
2022-08-24T08:09:31.462Z,95926.06
2022-08-24T08:15:08.771Z,95922.52
2022-08-24T08:17:57.390Z,95920.71
2022-08-24T08:20:47.107Z,95922.43
2022-08-24T08:26:38.736Z,95932.00
2022-08-24T08:32:16.946Z,95926.23
2022-08-24T08:35:06.123Z,95934.27
2022-08-24T08:43:56.119Z,95930.81
2022-08-24T08:50:05.224Z,95941.45
2022-08-24T08:56:13.219Z,95935.78
2022-08-24T09:01:53.107Z,95932.05
2022-08-24T09:07:44.613Z,95924.85
2022-08-24T09:10:55.438Z,95926.94
2022-08-24T09:17:13.298Z,95929.09
2022-08-24T09:20:26.118Z,95920.66
2022-08-24T09:26:07.398Z,95913.54
2022-08-24T09:31:53.143Z,95913.30
2022-08-24T09:37:41.708Z,95922.50
2022-08-24T09:47:12.328Z,95910.53
2022-08-24T09:53:21.477Z,95904.79
2022-08-24T09:56:28.667Z,95900.27
2022-08-24T09:59:25.179Z,95896.16
2022-08-24T10:05:12.597Z,95893.47
2022-08-24T10:13:43.653Z,95879.86
2022-08-24T10:19:43.386Z,95880.45
2022-08-24T10:25:30.732Z,95874.72
2022-08-24T10:31:14.373Z,95874.91
2022-08-24T10:37:05.273Z,95874.07
2022-08-24T10:40:09.514Z,95865.41
2022-08-24T10:53:15.672Z,95876.36
2022-08-24T10:59:04.508Z,95877.70
2022-08-24T11:08:02.925Z,95882.56
2022-08-24T11:11:17.068Z,95882.84
2022-08-24T11:14:12.586Z,95871.50
2022-08-24T11:17:15.574Z,95885.17
2022-08-24T11:20:05.921Z,95875.62
2022-08-24T11:25:51.121Z,95872.97
2022-08-24T11:28:42.891Z,95872.30
2022-08-24T11:34:21.894Z,95870.55
2022-08-24T11:39:57.438Z,95869.87
2022-08-24T11:42:54.587Z,95874.06
2022-08-24T11:48:37.426Z,95886.73
2022-08-24T11:51:36.398Z,95881.18
2022-08-24T11:57:18.232Z,95873.02
2022-08-24T12:03:00.876Z,95867.63
2022-08-24T12:05:53.263Z,95860.01
2022-08-24T12:11:29.434Z,95865.05
2022-08-24T12:17:02.163Z,95867.80
2022-08-24T12:25:41.777Z,95858.88
2022-08-24T12:28:34.257Z,95856.64
2022-08-24T12:31:25.393Z,95857.34
2022-08-24T12:34:18.488Z,95847.09
2022-08-24T12:39:56.671Z,95844.74
2022-08-24T12:45:30.145Z,95842.50
2022-08-24T12:51:14.936Z,95830.52
2022-08-24T12:57:11.177Z,95838.42
2022-08-24T13:02:57.887Z,95834.19
2022-08-24T13:11:32.346Z,95832.23
2022-08-24T13:14:23.931Z,95827.34
2022-08-24T13:20:19.401Z,95821.26
2022-08-24T13:25:59.953Z,95819.86
2022-08-24T13:31:52.411Z,95817.02
2022-08-24T13:37:33.319Z,95809.97
2022-08-24T13:43:26.935Z,95812.55
2022-08-24T13:49:07.409Z,95810.39
2022-08-24T13:54:45.359Z,95808.19
2022-08-24T13:57:40.171Z,95810.10
2022-08-24T14:00:39.974Z,95815.08
2022-08-24T14:03:53.150Z,95814.36
2022-08-24T14:09:38.603Z,95816.14
2022-08-24T14:12:40.099Z,95810.80
2022-08-24T14:18:34.372Z,95813.14
2022-08-24T14:21:25.165Z,95815.47
2022-08-24T14:27:20.625Z,95807.53
2022-08-24T14:30:50.202Z,95810.52
2022-08-24T14:36:31.882Z,95812.09
2022-08-24T14:42:17.404Z,95806.21
2022-08-24T14:45:10.291Z,95809.09
2022-08-24T14:48:05.658Z,95817.30
2022-08-24T14:53:58.615Z,95806.27
2022-08-24T14:59:47.059Z,95800.31
2022-08-24T15:05:39.644Z,95809.56
2022-08-24T15:11:32.187Z,95797.34
2022-08-24T15:17:12.573Z,95790.56
2022-08-24T15:22:58.179Z,95803.11
2022-08-24T15:28:37.567Z,95798.91
2022-08-24T15:34:16.216Z,95796.72
2022-08-24T15:39:53.253Z,95788.23
2022-08-24T15:45:29.129Z,95782.77
2022-08-24T15:48:21.354Z,95779.75
2022-08-24T15:53:58.314Z,95785.37
2022-08-24T16:02:28.224Z,95789.16
2022-08-24T16:05:22.313Z,95789.40
2022-08-24T16:13:47.610Z,95786.60
2022-08-24T16:22:07.230Z,95796.13
2022-08-24T16:25:12.241Z,95801.59
2022-08-24T16:33:44.012Z,95793.00
2022-08-24T16:39:13.598Z,95792.13
2022-08-24T16:44:52.045Z,95793.23
2022-08-24T16:53:14.147Z,95802.11
2022-08-24T16:56:04.142Z,95804.70
2022-08-24T17:01:42.372Z,95803.60
2022-08-24T17:04:31.602Z,95805.25
2022-08-24T17:10:10.574Z,95809.23
2022-08-24T17:15:44.609Z,95817.05
2022-08-24T17:21:19.339Z,95819.31
2022-08-24T17:26:57.330Z,95819.13
2022-08-24T17:29:46.709Z,95821.70
2022-08-24T17:35:21.745Z,95824.84
2022-08-24T17:41:00.924Z,95827.41
2022-08-24T17:46:35.259Z,95826.59
2022-08-24T17:49:23.900Z,95824.41
2022-08-24T17:55:01.023Z,95832.48
2022-08-24T18:00:39.743Z,95838.30
2022-08-24T18:03:28.316Z,95841.57
2022-08-24T18:06:19.320Z,95835.61
2022-08-24T18:09:10.936Z,95831.44
2022-08-24T18:11:59.747Z,95838.98
2022-08-24T18:14:48.276Z,95842.45
2022-08-24T18:20:29.792Z,95842.95
2022-08-24T18:26:06.590Z,95838.31
2022-08-24T18:34:25.923Z,95844.38
2022-08-24T18:40:02.338Z,95842.93
2022-08-24T18:45:44.210Z,95850.45
2022-08-24T18:51:24.315Z,95848.07
2022-08-24T18:57:00.938Z,95862.98
2022-08-24T19:02:35.971Z,95863.09
2022-08-24T19:08:12.369Z,95876.95
2022-08-24T19:13:57.668Z,95878.27
2022-08-24T19:19:34.879Z,95877.09
2022-08-24T19:22:24.107Z,95877.91
2022-08-24T19:28:12.706Z,95877.95
2022-08-24T19:33:49.900Z,95868.13
2022-08-24T19:39:31.716Z,95866.00
2022-08-24T19:45:24.915Z,95867.57
2022-08-24T19:50:56.988Z,95863.64
2022-08-24T19:53:49.494Z,95859.45
2022-08-24T19:59:38.946Z,95860.66
2022-08-24T20:02:31.401Z,95862.83
2022-08-24T20:05:30.690Z,95861.48
2022-08-24T20:14:10.598Z,95857.88
2022-08-24T20:19:57.461Z,95852.24
2022-08-24T20:22:46.108Z,95851.55
2022-08-24T20:25:39.253Z,95853.93
2022-08-24T20:31:14.495Z,95863.09
2022-08-24T20:34:02.707Z,95857.95
2022-08-24T20:39:36.865Z,95855.92
2022-08-24T20:42:26.082Z,95863.67
2022-08-24T20:48:07.245Z,95854.80
2022-08-24T20:50:56.473Z,95846.52
2022-08-24T20:56:30.772Z,95848.63
2022-08-24T20:59:19.915Z,95838.20
2022-08-24T21:21:33.472Z,95840.37
2022-08-24T21:27:03.713Z,95836.88
2022-08-24T21:33:00.465Z,95840.30
2022-08-24T21:35:48.904Z,95838.58
2022-08-24T21:38:37.518Z,95839.02
2022-08-24T21:41:30.495Z,95833.72
2022-08-24T21:46:59.626Z,95841.02
2022-08-24T21:49:48.659Z,95829.64
2022-08-24T21:55:16.479Z,95826.88
2022-08-24T22:00:52.456Z,95832.19
2022-08-24T22:06:31.522Z,95833.41
2022-08-24T22:12:05.595Z,95834.63
2022-08-24T22:17:33.540Z,95822.23
2022-08-24T22:23:15.181Z,95823.97
2022-08-24T22:28:51.367Z,95815.92
2022-08-24T22:34:27.718Z,95816.70
2022-08-24T22:40:01.897Z,95813.59
2022-08-24T22:42:50.096Z,95811.47
2022-08-24T22:48:26.778Z,95806.19
2022-08-24T22:54:01.581Z,95813.48
2022-08-24T22:56:52.756Z,95814.69
2022-08-24T23:02:23.651Z,95808.84
2022-08-24T23:07:56.291Z,95815.71
2022-08-24T23:13:28.663Z,95807.44
2022-08-24T23:19:22.283Z,95803.50
2022-08-24T23:24:58.365Z,95800.94
2022-08-24T23:30:33.367Z,95795.84
2022-08-24T23:36:24.773Z,95801.77
2022-08-24T23:39:15.553Z,95801.75
2022-08-24T23:44:55.141Z,95794.10
2022-08-24T23:50:29.166Z,95785.83
2022-08-24T23:56:10.883Z,95785.03
2022-08-24T23:59:04.422Z,95780.70
